Time;durP1;ratioP1;P1;durP2;ratioP2;P2;SDS_P1;SDS_P2;PMS_P1;PMS_P2;Temp;Humidity;BMP_temperature;BMP_pressure;BME280_temperature;BME280_humidity;BME280_pressure;Samples;Min_cycle;Max_cycle;Signal;HPM_P1;HPM_P2
2021/12/18 00:01:24;;;;;;;20.90;12.57;;;;;;;;;;6189115;23;20354;-45
2021/12/18 00:03:49;;;;;;;19.70;12.07;;;;;;;;;;6194696;23;20083;-45
2021/12/18 00:06:15;;;;;;;13.43;9.18;;;;;;;;;;6194103;23;20535;-44
2021/12/18 00:08:41;;;;;;;12.63;9.05;;;;;;;;;;6189694;23;20437;-44
2021/12/18 00:11:06;;;;;;;12.88;9.23;;;;;;;;;;6189691;23;20096;-46
2021/12/18 00:13:32;;;;;;;15.57;9.63;;;;;;;;;;6193868;23;20020;-44
2021/12/18 00:15:57;;;;;;;15.20;10.52;;;;;;;;;;6194168;23;20020;-46
2021/12/18 00:18:22;;;;;;;16.80;11.10;;;;;;;;;;6191195;23;20024;-45
2021/12/18 00:20:48;;;;;;;16.67;10.32;;;;;;;;;;6189086;23;20009;-44
2021/12/18 00:23:13;;;;;;;17.30;10.55;;;;;;;;;;6187570;23;20019;-48
2021/12/18 00:25:39;;;;;;;14.23;9.27;;;;;;;;;;6193256;23;20084;-45
2021/12/18 00:28:06;;;;;;;12.95;9.15;;;;;;;;;;6192745;23;20020;-45
2021/12/18 00:30:33;;;;;;;13.40;10.07;;;;;;;;;;6187423;23;20024;-44
2021/12/18 00:32:58;;;;;;;16.08;10.18;;;;;;;;;;6187679;23;20036;-46
2021/12/18 00:35:23;;;;;;;13.65;9.43;;;;;;;;;;6163482;23;20009;-45
2021/12/18 00:37:48;;;;;;;13.32;9.20;;;;;;;;;;6194957;23;20008;-48
2021/12/18 00:40:24;;;;;;;11.68;7.97;;;;;;;;;;6193454;23;20028;-45
2021/12/18 00:43:00;;;;;;;9.43;7.53;;;;;;;;;;6189292;23;20109;-46
2021/12/18 00:45:27;;;;;;;9.38;6.88;;;;;;;;;;6192132;23;20028;-44
2021/12/18 00:47:53;;;;;;;7.47;6.25;;;;;;;;;;6194030;23;20004;-48
2021/12/18 00:50:20;;;;;;;9.07;7.50;;;;;;;;;;6192777;23;20099;-46
2021/12/18 00:52:47;;;;;;;9.35;7.82;;;;;;;;;;6194326;23;20020;-50
2021/12/18 00:55:13;;;;;;;9.80;7.53;;;;;;;;;;6193835;23;20359;-47
2021/12/18 00:57:38;;;;;;;10.15;7.32;;;;;;;;;;6189689;23;20455;-47
2021/12/18 01:00:06;;;;;;;8.88;6.43;;;;;;;;;;6162539;23;20079;-47
2021/12/18 01:02:31;;;;;;;8.77;6.45;;;;;;;;;;6192706;23;20013;-45
2021/12/18 01:04:56;;;;;;;7.72;6.28;;;;;;;;;;6193752;23;20017;-44
2021/12/18 01:07:22;;;;;;;9.00;6.75;;;;;;;;;;6191408;23;20009;-46
2021/12/18 01:10:02;;;;;;;8.35;6.95;;;;;;;;;;6162757;23;20024;-45
2021/12/18 01:12:34;;;;;;;9.10;7.00;;;;;;;;;;6191431;23;20010;-44
2021/12/18 01:15:28;;;;;;;9.25;6.65;;;;;;;;;;6194710;23;20461;-46
2021/12/18 01:23:13;;;;;;;11.07;6.75;;;;;;;;;;6188678;23;20020;-44
2021/12/18 01:25:39;;;;;;;10.05;6.88;;;;;;;;;;6193952;23;20008;-44
2021/12/18 01:28:04;;;;;;;10.38;7.22;;;;;;;;;;6194621;23;20015;-44
2021/12/18 01:30:30;;;;;;;9.15;6.85;;;;;;;;;;6189745;23;20023;-44
2021/12/18 01:32:55;;;;;;;8.30;6.53;;;;;;;;;;6189157;23;20013;-43
2021/12/18 01:35:21;;;;;;;8.93;7.97;;;;;;;;;;6190208;23;20009;-46
2021/12/18 01:37:47;;;;;;;10.85;7.88;;;;;;;;;;6194006;23;20402;-44
2021/12/18 01:40:12;;;;;;;11.07;7.50;;;;;;;;;;6193363;23;20035;-44
2021/12/18 01:53:03;;;;;;;10.90;7.40;;;;;;;;;;6188400;23;20028;-44
2021/12/18 01:55:31;;;;;;;10.25;6.90;;;;;;;;;;6192196;23;20017;-45
2021/12/18 01:57:56;;;;;;;9.63;7.88;;;;;;;;;;6193757;23;20054;-45
2021/12/18 02:00:23;;;;;;;10.30;7.50;;;;;;;;;;6191793;23;20096;-44
2021/12/18 02:02:48;;;;;;;9.55;7.28;;;;;;;;;;6189343;23;20013;-45
2021/12/18 02:05:14;;;;;;;9.90;6.75;;;;;;;;;;6188663;23;20361;-45
2021/12/18 02:07:40;;;;;;;10.38;7.78;;;;;;;;;;6193656;23;20009;-44
2021/12/18 02:10:09;;;;;;;10.70;8.25;;;;;;;;;;6194049;23;20025;-44
2021/12/18 02:13:01;;;;;;;10.20;7.82;;;;;;;;;;6188229;23;20013;-44
2021/12/18 02:20:52;;;;;;;11.10;8.82;;;;;;;;;;6193619;23;20027;-45
2021/12/18 02:23:17;;;;;;;12.05;8.57;;;;;;;;;;6191968;23;20353;-45
2021/12/18 02:25:43;;;;;;;12.57;8.50;;;;;;;;;;6189252;23;20016;-47
2021/12/18 02:28:16;;;;;;;11.13;8.25;;;;;;;;;;6188334;23;20024;-47
2021/12/18 02:30:41;;;;;;;11.93;8.23;;;;;;;;;;6192950;23;20031;-44
2021/12/18 02:33:07;;;;;;;12.38;8.48;;;;;;;;;;6193836;23;20016;-44
2021/12/18 02:35:37;;;;;;;11.70;8.32;;;;;;;;;;6189049;23;20016;-46
2021/12/18 02:38:13;;;;;;;12.43;9.80;;;;;;;;;;6186054;23;20009;-45
2021/12/18 02:43:10;;;;;;;11.75;8.45;;;;;;;;;;6189759;23;20124;-44
2021/12/18 02:45:35;;;;;;;11.60;9.70;;;;;;;;;;6192549;23;20696;-44
2021/12/18 02:48:01;;;;;;;12.35;9.07;;;;;;;;;;6192087;23;20017;-44
2021/12/18 02:50:26;;;;;;;13.75;9.43;;;;;;;;;;6189207;23;20400;-45
2021/12/18 02:52:51;;;;;;;13.02;9.02;;;;;;;;;;6188207;23;20012;-45
2021/12/18 02:55:16;;;;;;;12.27;9.00;;;;;;;;;;6189053;23;20013;-43
2021/12/18 02:57:42;;;;;;;10.30;8.50;;;;;;;;;;6193886;23;20147;-47
2021/12/18 03:00:07;;;;;;;10.43;8.43;;;;;;;;;;6192580;23;20464;-47
2021/12/18 03:02:38;;;;;;;10.55;7.57;;;;;;;;;;6188725;23;20096;-44
2021/12/18 03:05:07;;;;;;;10.38;6.70;;;;;;;;;;6187991;23;20092;-44
2021/12/18 03:07:32;;;;;;;11.68;8.05;;;;;;;;;;6191972;23;20005;-46
2021/12/18 03:25:57;;;;;;;6.50;5.82;;;;;;;;;;6190773;23;20870;-45
2021/12/18 03:28:22;;;;;;;6.65;5.80;;;;;;;;;;6189284;23;20088;-44
2021/12/18 03:30:48;;;;;;;7.15;6.43;;;;;;;;;;6193452;23;20043;-46
2021/12/18 03:33:13;;;;;;;6.85;6.05;;;;;;;;;;6192039;23;20008;-44
2021/12/18 03:35:38;;;;;;;7.22;6.53;;;;;;;;;;6188603;23;20468;-44
2021/12/18 03:38:04;;;;;;;7.10;6.00;;;;;;;;;;6186259;23;20021;-44
2021/12/18 03:40:29;;;;;;;6.60;5.47;;;;;;;;;;6191477;23;20028;-44
2021/12/18 03:42:55;;;;;;;7.10;6.40;;;;;;;;;;6192610;23;20009;-44
2021/12/18 03:45:20;;;;;;;10.18;6.70;;;;;;;;;;6191347;23;20481;-46
2021/12/18 03:47:46;;;;;;;6.30;5.70;;;;;;;;;;6188337;23;20024;-45
2021/12/18 03:50:11;;;;;;;6.32;5.72;;;;;;;;;;6186820;23;20029;-47
2021/12/18 03:52:36;;;;;;;7.43;6.57;;;;;;;;;;6186816;23;20021;-47
2021/12/18 03:55:02;;;;;;;7.55;6.57;;;;;;;;;;6188255;23;20013;-44
2021/12/18 03:57:28;;;;;;;6.93;5.72;;;;;;;;;;6190572;23;20561;-45
2021/12/18 03:59:53;;;;;;;6.97;5.22;;;;;;;;;;6193007;23;20446;-44
2021/12/18 04:02:18;;;;;;;7.78;5.88;;;;;;;;;;6190822;23;20013;-45
2021/12/18 04:04:43;;;;;;;7.30;6.13;;;;;;;;;;6188333;23;20020;-43
2021/12/18 04:07:09;;;;;;;6.82;6.10;;;;;;;;;;6188478;23;20024;-44
2021/12/18 04:09:35;;;;;;;7.25;6.20;;;;;;;;;;6191903;23;20024;-44
2021/12/18 04:12:01;;;;;;;6.90;6.13;;;;;;;;;;6193337;23;20023;-45
2021/12/18 04:14:26;;;;;;;8.18;6.30;;;;;;;;;;6188914;23;20532;-44
2021/12/18 04:16:51;;;;;;;8.73;7.07;;;;;;;;;;6188368;23;20067;-43
2021/12/18 04:19:17;;;;;;;5.88;5.13;;;;;;;;;;6188063;23;20408;-45
2021/12/18 04:21:42;;;;;;;7.03;6.30;;;;;;;;;;6193510;23;20028;-44
2021/12/18 04:24:07;;;;;;;7.50;5.78;;;;;;;;;;6192770;23;20062;-44
2021/12/18 04:26:34;;;;;;;6.38;5.57;;;;;;;;;;6188509;23;20043;-44
2021/12/18 04:29:01;;;;;;;6.95;6.25;;;;;;;;;;6187216;23;20020;-44
2021/12/18 04:31:26;;;;;;;7.50;6.47;;;;;;;;;;6190092;23;20021;-46
2021/12/18 04:33:52;;;;;;;7.25;5.95;;;;;;;;;;6193395;23;20008;-44
2021/12/18 04:36:17;;;;;;;7.45;5.68;;;;;;;;;;6191638;23;20021;-43
2021/12/18 04:38:42;;;;;;;7.22;6.00;;;;;;;;;;6187700;23;20438;-44
2021/12/18 04:41:10;;;;;;;8.32;5.55;;;;;;;;;;6189207;23;20076;-44
2021/12/18 04:43:35;;;;;;;7.13;6.15;;;;;;;;;;6194711;23;20001;-45
2021/12/18 04:46:00;;;;;;;7.32;6.30;;;;;;;;;;6194571;23;20459;-45
2021/12/18 04:48:26;;;;;;;7.40;6.68;;;;;;;;;;6190757;23;20404;-48
2021/12/18 04:50:51;;;;;;;8.32;5.80;;;;;;;;;;6188763;23;20357;-46
2021/12/18 04:53:16;;;;;;;7.00;5.70;;;;;;;;;;6190161;23;20013;-45
2021/12/18 04:55:41;;;;;;;7.60;6.25;;;;;;;;;;6194204;23;20012;-44
2021/12/18 04:58:07;;;;;;;9.82;5.68;;;;;;;;;;6194788;23;20012;-44
2021/12/18 05:00:46;;;;;;;6.78;5.45;;;;;;;;;;6186823;23;20005;-45
2021/12/18 05:03:13;;;;;;;7.40;5.20;;;;;;;;;;6189556;23;20016;-44
2021/12/18 05:05:38;;;;;;;9.63;5.47;;;;;;;;;;6194610;23;20032;-46
2021/12/18 05:08:04;;;;;;;8.50;6.35;;;;;;;;;;6194401;23;20464;-46
2021/12/18 05:10:30;;;;;;;8.23;6.18;;;;;;;;;;6190136;23;20385;-45
2021/12/18 05:12:55;;;;;;;9.07;6.18;;;;;;;;;;6189852;23;20013;-44
2021/12/18 05:15:21;;;;;;;8.55;6.55;;;;;;;;;;6190941;23;20020;-44
2021/12/18 05:17:46;;;;;;;9.32;6.53;;;;;;;;;;6191200;23;20001;-44
2021/12/18 05:20:11;;;;;;;10.15;6.82;;;;;;;;;;6190722;23;20016;-44
2021/12/18 05:22:37;;;;;;;10.77;6.55;;;;;;;;;;6186323;23;20016;-44
2021/12/18 05:25:03;;;;;;;8.27;6.18;;;;;;;;;;6186753;23;20016;-44
2021/12/18 05:27:28;;;;;;;9.43;6.78;;;;;;;;;;6189254;23;20087;-46
2021/12/18 05:29:54;;;;;;;12.15;7.82;;;;;;;;;;6191558;23;20107;-44
2021/12/18 05:32:19;;;;;;;13.57;7.13;;;;;;;;;;6189360;23;20017;-46
2021/12/18 05:34:44;;;;;;;11.77;8.23;;;;;;;;;;6186803;23;20056;-44
2021/12/18 05:37:30;;;;;;;10.80;7.45;;;;;;;;;;6186900;23;20017;-44
2021/12/18 05:39:55;;;;;;;12.88;7.40;;;;;;;;;;6186627;23;20598;-45
2021/12/18 05:42:21;;;;;;;11.23;7.10;;;;;;;;;;6187376;23;20063;-45
2021/12/18 05:44:46;;;;;;;8.98;5.55;;;;;;;;;;6191960;23;20016;-44
2021/12/18 05:47:12;;;;;;;14.45;7.55;;;;;;;;;;6190762;23;20009;-43
2021/12/18 05:49:37;;;;;;;9.85;6.93;;;;;;;;;;6185482;23;20013;-44
2021/12/18 05:52:03;;;;;;;10.60;6.30;;;;;;;;;;6185729;23;20140;-44
2021/12/18 05:54:28;;;;;;;9.88;6.95;;;;;;;;;;6188646;23;20017;-43
2021/12/18 05:56:53;;;;;;;10.73;6.65;;;;;;;;;;6191521;23;20004;-45
2021/12/18 05:59:19;;;;;;;10.93;7.10;;;;;;;;;;6161923;23;20728;-45
2021/12/18 06:01:44;;;;;;;9.82;5.63;;;;;;;;;;6186809;23;20113;-44
2021/12/18 06:04:09;;;;;;;10.23;6.60;;;;;;;;;;6159446;23;20020;-44
2021/12/18 06:06:35;;;;;;;9.77;6.25;;;;;;;;;;6190269;23;20011;-44
2021/12/18 06:09:00;;;;;;;10.02;6.45;;;;;;;;;;6191475;23;20138;-44
2021/12/18 06:11:28;;;;;;;9.85;6.20;;;;;;;;;;6186817;23;20020;-44
2021/12/18 06:13:53;;;;;;;10.15;5.93;;;;;;;;;;6188850;23;20040;-45
2021/12/18 06:16:19;;;;;;;10.45;6.32;;;;;;;;;;6189586;23;20017;-45
2021/12/18 06:18:45;;;;;;;10.00;6.03;;;;;;;;;;6194468;23;20008;-44
2021/12/18 06:21:14;;;;;;;13.43;6.72;;;;;;;;;;6193118;23;20017;-44
2021/12/18 06:23:40;;;;;;;12.93;7.30;;;;;;;;;;6193691;23;20004;-45
2021/12/18 06:26:05;;;;;;;10.80;6.07;;;;;;;;;;6179600;23;20012;-44
2021/12/18 06:28:30;;;;;;;12.98;6.50;;;;;;;;;;6189455;23;20024;-44
2021/12/18 06:30:56;;;;;;;12.32;6.35;;;;;;;;;;6188263;23;20044;-45
2021/12/18 06:33:21;;;;;;;11.80;7.47;;;;;;;;;;6190569;23;20083;-45
2021/12/18 06:35:46;;;;;;;12.65;6.80;;;;;;;;;;6193591;23;20461;-45
2021/12/18 06:38:12;;;;;;;10.80;6.93;;;;;;;;;;6192719;23;20024;-45
2021/12/18 06:40:37;;;;;;;13.45;6.85;;;;;;;;;;6188004;23;20080;-45
2021/12/18 06:43:02;;;;;;;12.48;6.07;;;;;;;;;;6188613;23;20021;-44
2021/12/18 06:45:28;;;;;;;11.90;6.00;;;;;;;;;;6190905;23;20016;-48
2021/12/18 06:47:53;;;;;;;10.27;6.82;;;;;;;;;;6193988;23;20019;-43
2021/12/18 06:50:18;;;;;;;10.55;6.70;;;;;;;;;;6191050;23;20035;-45
2021/12/18 06:52:44;;;;;;;11.40;6.60;;;;;;;;;;6188140;23;20056;-44
2021/12/18 06:55:10;;;;;;;11.00;6.60;;;;;;;;;;6188408;23;20338;-44
2021/12/18 06:57:36;;;;;;;11.95;6.68;;;;;;;;;;6192588;23;20039;-44
2021/12/18 07:00:01;;;;;;;10.88;7.07;;;;;;;;;;6193352;23;20067;-45
2021/12/18 07:02:26;;;;;;;11.00;6.07;;;;;;;;;;6189293;23;20013;-44
2021/12/18 07:04:52;;;;;;;10.93;6.20;;;;;;;;;;6188293;23;20068;-43
2021/12/18 07:07:17;;;;;;;10.68;6.00;;;;;;;;;;6188983;23;20087;-44
2021/12/18 07:09:43;;;;;;;9.90;5.65;;;;;;;;;;6193694;23;20078;-45
2021/12/18 07:12:10;;;;;;;11.68;6.72;;;;;;;;;;6193027;23;20016;-47
2021/12/18 07:14:35;;;;;;;13.00;6.60;;;;;;;;;;6188121;23;20028;-44
2021/12/18 07:17:00;;;;;;;9.05;5.60;;;;;;;;;;6188065;23;20032;-44
2021/12/18 07:19:26;;;;;;;11.80;6.88;;;;;;;;;;6191205;23;20033;-45
2021/12/18 07:21:51;;;;;;;12.55;7.35;;;;;;;;;;6192636;23;20009;-44
2021/12/18 07:24:16;;;;;;;12.05;6.80;;;;;;;;;;6192369;23;20012;-43
2021/12/18 07:26:41;;;;;;;11.27;5.88;;;;;;;;;;6188094;23;20001;-44
2021/12/18 07:29:07;;;;;;;13.55;7.20;;;;;;;;;;6186388;23;20020;-44
2021/12/18 07:31:32;;;;;;;9.52;6.63;;;;;;;;;;6192762;23;20015;-45
2021/12/18 07:33:57;;;;;;;8.57;5.90;;;;;;;;;;6192803;23;20005;-44
2021/12/18 07:36:23;;;;;;;10.38;5.53;;;;;;;;;;6190597;23;20768;-44
2021/12/18 07:38:48;;;;;;;13.30;6.63;;;;;;;;;;6188037;23;20084;-46
2021/12/18 07:41:13;;;;;;;13.10;7.05;;;;;;;;;;6188557;23;20017;-44
2021/12/18 07:43:39;;;;;;;9.05;5.47;;;;;;;;;;6193425;23;20606;-46
2021/12/18 07:46:04;;;;;;;12.68;6.95;;;;;;;;;;6166506;23;20013;-44
2021/12/18 07:48:29;;;;;;;10.45;6.45;;;;;;;;;;6189347;23;20488;-45
2021/12/18 07:50:55;;;;;;;9.73;5.97;;;;;;;;;;6187265;23;20025;-44
2021/12/18 07:53:21;;;;;;;12.32;6.38;;;;;;;;;;6189345;23;20087;-44
2021/12/18 07:55:46;;;;;;;13.95;6.20;;;;;;;;;;6192927;23;20409;-43
2021/12/18 07:58:11;;;;;;;15.70;6.63;;;;;;;;;;6192673;23;20426;-44
2021/12/18 08:00:37;;;;;;;14.27;6.80;;;;;;;;;;6187591;23;20035;-45
2021/12/18 08:03:02;;;;;;;14.77;7.80;;;;;;;;;;6188674;23;20009;-44
2021/12/18 08:05:28;;;;;;;15.40;7.45;;;;;;;;;;6190781;23;20021;-44
2021/12/18 08:07:53;;;;;;;14.15;7.30;;;;;;;;;;6193384;23;20080;-46
2021/12/18 08:10:19;;;;;;;14.73;8.00;;;;;;;;;;6190908;23;20025;-44
2021/12/18 08:12:44;;;;;;;16.30;7.15;;;;;;;;;;6188345;23;20016;-46
2021/12/18 08:15:09;;;;;;;11.18;7.20;;;;;;;;;;6188986;23;20024;-44
2021/12/18 08:17:35;;;;;;;15.52;8.27;;;;;;;;;;6194341;23;20005;-44
2021/12/18 08:20:01;;;;;;;14.93;7.63;;;;;;;;;;6192837;23;20015;-44
2021/12/18 08:22:26;;;;;;;13.73;8.23;;;;;;;;;;6188896;23;20047;-45
2021/12/18 08:24:51;;;;;;;16.60;8.07;;;;;;;;;;6188136;23;20031;-43
2021/12/18 08:27:16;;;;;;;16.48;9.77;;;;;;;;;;6189385;23;20021;-45
2021/12/18 08:29:42;;;;;;;18.55;10.43;;;;;;;;;;6194303;23;20016;-45
2021/12/18 08:32:07;;;;;;;24.52;11.50;;;;;;;;;;6194350;23;20013;-46
2021/12/18 08:34:33;;;;;;;18.55;10.85;;;;;;;;;;6189670;23;20009;-45
2021/12/18 08:36:58;;;;;;;19.08;10.45;;;;;;;;;;6189778;23;20132;-44
2021/12/18 08:39:23;;;;;;;16.90;10.77;;;;;;;;;;6192346;23;20028;-46
2021/12/18 08:41:48;;;;;;;15.73;10.32;;;;;;;;;;6194294;23;20062;-46
2021/12/18 08:44:14;;;;;;;15.35;10.05;;;;;;;;;;6193879;23;20016;-44
2021/12/18 08:46:39;;;;;;;17.92;10.68;;;;;;;;;;6189965;23;20579;-47
2021/12/18 08:49:05;;;;;;;15.80;9.60;;;;;;;;;;6189267;23;20035;-45
2021/12/18 08:51:30;;;;;;;12.50;8.63;;;;;;;;;;6192784;23;20029;-45
2021/12/18 08:53:56;;;;;;;12.73;8.70;;;;;;;;;;6195331;23;20084;-46
2021/12/18 08:56:21;;;;;;;15.65;10.00;;;;;;;;;;6191678;23;20020;-43
2021/12/18 08:58:46;;;;;;;13.70;9.23;;;;;;;;;;6189991;23;20160;-46
2021/12/18 09:01:11;;;;;;;11.85;8.55;;;;;;;;;;6188015;23;20016;-42
2021/12/18 09:03:37;;;;;;;11.25;8.15;;;;;;;;;;6195088;23;20078;-48
2021/12/18 09:06:02;;;;;;;11.25;8.45;;;;;;;;;;6194641;23;20361;-46
2021/12/18 09:08:28;;;;;;;10.82;7.88;;;;;;;;;;6191203;23;20015;-46
2021/12/18 09:10:53;;;;;;;11.68;9.07;;;;;;;;;;6189610;23;20374;-45
2021/12/18 09:13:18;;;;;;;12.07;9.25;;;;;;;;;;6190314;23;20092;-45
2021/12/18 09:15:44;;;;;;;10.40;7.93;;;;;;;;;;6195713;23;20408;-46
2021/12/18 09:18:09;;;;;;;11.00;7.90;;;;;;;;;;6193773;23;20013;-44
2021/12/18 09:20:35;;;;;;;10.65;7.45;;;;;;;;;;6189536;23;20429;-43
2021/12/18 09:23:01;;;;;;;10.50;8.07;;;;;;;;;;6189228;23;20027;-44
2021/12/18 09:25:27;;;;;;;9.07;7.45;;;;;;;;;;6191261;23;20013;-44
2021/12/18 09:27:55;;;;;;;9.35;7.90;;;;;;;;;;6194446;23;20092;-46
2021/12/18 09:30:20;;;;;;;11.02;8.40;;;;;;;;;;6192103;23;20020;-46
2021/12/18 09:32:46;;;;;;;9.38;7.50;;;;;;;;;;6161168;23;20009;-43
2021/12/18 09:35:11;;;;;;;11.13;7.90;;;;;;;;;;6188217;23;20548;-42
2021/12/18 09:37:37;;;;;;;11.77;8.48;;;;;;;;;;6194620;23;20017;-44
2021/12/18 09:40:03;;;;;;;12.18;7.93;;;;;;;;;;6194210;23;20016;-44
2021/12/18 09:42:30;;;;;;;10.73;8.20;;;;;;;;;;6188634;23;20012;-43
2021/12/18 09:44:55;;;;;;;13.30;8.90;;;;;;;;;;6187409;23;20012;-44
2021/12/18 09:47:20;;;;;;;11.48;9.18;;;;;;;;;;6187290;23;20112;-45
2021/12/18 09:49:46;;;;;;;12.38;9.23;;;;;;;;;;6191222;23;20040;-43
2021/12/18 09:52:11;;;;;;;10.77;8.48;;;;;;;;;;6190683;23;20547;-41
2021/12/18 09:54:37;;;;;;;14.15;9.85;;;;;;;;;;6186275;23;20589;-44
2021/12/18 09:57:02;;;;;;;11.25;8.38;;;;;;;;;;6185835;23;20016;-43
2021/12/18 09:59:28;;;;;;;11.57;9.35;;;;;;;;;;6196349;23;20016;-44
2021/12/18 10:01:54;;;;;;;11.30;7.82;;;;;;;;;;6185486;23;20087;-44
2021/12/18 10:04:23;;;;;;;13.20;9.25;;;;;;;;;;6187401;23;20084;-43
2021/12/18 10:06:48;;;;;;;9.38;7.80;;;;;;;;;;6191414;23;20005;-44
2021/12/18 10:09:17;;;;;;;10.68;8.45;;;;;;;;;;6189300;23;20745;-43
2021/12/18 10:11:53;;;;;;;10.00;7.68;;;;;;;;;;6185032;23;20067;-44
2021/12/18 10:14:30;;;;;;;14.68;8.32;;;;;;;;;;6187868;23;20017;-43
2021/12/18 10:16:56;;;;;;;11.23;8.65;;;;;;;;;;6191576;23;20088;-46
2021/12/18 10:19:25;;;;;;;14.30;10.38;;;;;;;;;;6189623;23;20032;-44
2021/12/18 10:21:51;;;;;;;;;;;;;;;;;;6186669;23;20368;-46
2021/12/18 10:24:17;;;;;;;10.32;8.65;;;;;;;;;;6161356;23;19908;-47
2021/12/18 10:26:44;;;;;;;12.00;8.80;;;;;;;;;;6191246;23;20456;-47
2021/12/18 10:29:30;;;;;;;13.15;10.10;;;;;;;;;;6193349;23;20345;-43
2021/12/18 10:32:02;;;;;;;11.15;8.68;;;;;;;;;;6193984;23;20567;-44
2021/12/18 10:34:27;;;;;;;13.35;9.40;;;;;;;;;;6189544;23;20020;-43
2021/12/18 10:37:11;;;;;;;11.23;8.48;;;;;;;;;;6188730;23;20016;-43
2021/12/18 10:39:37;;;;;;;13.90;9.48;;;;;;;;;;6193057;23;20531;-45
2021/12/18 10:42:16;;;;;;;14.52;10.70;;;;;;;;;;6193824;23;20019;-44
2021/12/18 10:45:14;;;;;;;14.68;11.10;;;;;;;;;;6194111;23;20055;-43
2021/12/18 10:47:43;;;;;;;12.60;9.40;;;;;;;;;;6104774;23;20013;-44
2021/12/18 10:50:35;;;;;;;18.23;11.00;;;;;;;;;;6188787;23;20020;-45
2021/12/18 10:53:05;;;;;;;13.23;9.90;;;;;;;;;;6186423;23;20044;-43
2021/12/18 10:55:35;;;;;;;13.05;10.15;;;;;;;;;;6188881;23;20021;-44
2021/12/18 10:58:02;;;;;;;14.23;10.80;;;;;;;;;;6187967;23;20021;-43
2021/12/18 11:00:35;;;;;;;13.02;9.98;;;;;;;;;;6165056;23;20013;-43
2021/12/18 11:03:19;;;;;;;13.40;9.57;;;;;;;;;;6156381;23;20021;-46
2021/12/18 11:06:02;;;;;;;14.23;10.30;;;;;;;;;;6181650;23;20012;-43
2021/12/18 11:08:27;;;;;;;13.10;9.52;;;;;;;;;;6187074;23;20021;-44
2021/12/18 11:13:38;;;;;;;13.50;9.50;;;;;;;;;;6190658;23;20017;-43
2021/12/18 11:13:48;;;;;;;13.45;10.65;;;;;;;;;;6187945;23;20013;-43
2021/12/18 11:16:14;;;;;;;12.38;10.10;;;;;;;;;;6189644;23;20013;-43
2021/12/18 11:18:39;;;;;;;10.15;8.57;;;;;;;;;;6185315;23;20001;-44
2021/12/18 11:21:04;;;;;;;10.27;8.73;;;;;;;;;;6185229;23;20016;-44
2021/12/18 11:23:50;;;;;;;11.70;9.48;;;;;;;;;;6188159;23;20770;-44
2021/12/18 11:26:16;;;;;;;9.18;8.18;;;;;;;;;;6187696;23;20032;-44
2021/12/18 11:28:48;;;;;;;10.80;9.20;;;;;;;;;;6182913;23;20036;-44
2021/12/18 11:31:13;;;;;;;9.50;7.78;;;;;;;;;;6184284;23;20400;-43
2021/12/18 11:33:39;;;;;;;12.70;9.43;;;;;;;;;;6191922;23;20651;-45
2021/12/18 11:36:05;;;;;;;9.35;7.78;;;;;;;;;;6191595;23;20094;-44
2021/12/18 11:38:31;;;;;;;10.27;8.25;;;;;;;;;;6188865;23;20457;-45
2021/12/18 11:40:56;;;;;;;10.23;7.88;;;;;;;;;;6186851;23;20013;-44
2021/12/18 11:43:48;;;;;;;9.18;7.82;;;;;;;;;;6188179;23;20009;-46
2021/12/18 11:46:28;;;;;;;12.15;7.05;;;;;;;;;;6185602;23;20044;-46
2021/12/18 11:49:13;;;;;;;9.13;6.97;;;;;;;;;;6189066;23;20005;-45
2021/12/18 11:51:39;;;;;;;8.43;6.85;;;;;;;;;;6206221;23;20115;-46
2021/12/18 11:54:24;;;;;;;7.68;6.13;;;;;;;;;;6206913;23;20036;-45
2021/12/18 11:56:50;;;;;;;9.50;7.70;;;;;;;;;;6207271;23;20438;-44
2021/12/18 11:59:35;;;;;;;8.07;6.28;;;;;;;;;;6206632;23;20345;-45
2021/12/18 12:02:00;;;;;;;7.15;6.38;;;;;;;;;;6206981;23;20078;-47
2021/12/18 12:04:26;;;;;;;7.82;6.80;;;;;;;;;;6206775;23;20016;-44
2021/12/18 12:06:51;;;;;;;8.63;6.60;;;;;;;;;;6200336;23;20036;-48
2021/12/18 12:09:54;;;;;;;8.07;7.28;;;;;;;;;;6202646;23;20016;-46
2021/12/18 12:12:07;;;;;;;7.53;6.72;;;;;;;;;;6201229;23;20020;-44
2021/12/18 12:14:34;;;;;;;9.32;7.05;;;;;;;;;;6174791;23;20396;-49
2021/12/18 12:17:05;;;;;;;8.93;7.38;;;;;;;;;;6201771;23;20013;-47
2021/12/18 12:19:33;;;;;;;8.20;6.30;;;;;;;;;;6201988;23;20028;-45
2021/12/18 12:21:58;;;;;;;7.90;6.70;;;;;;;;;;6202825;23;20322;-44
2021/12/18 12:24:31;;;;;;;10.93;7.78;;;;;;;;;;6201563;23;20019;-43
2021/12/18 12:27:35;;;;;;;10.70;7.88;;;;;;;;;;6202832;23;20009;-46
2021/12/18 12:30:03;;;;;;;9.15;7.10;;;;;;;;;;6063633;23;20014;-43
2021/12/18 12:32:29;;;;;;;10.30;7.32;;;;;;;;;;6107606;23;20020;-46
2021/12/18 12:35:04;;;;;;;6.60;5.00;;;;;;;;;;6145230;23;20001;-44
2021/12/18 12:37:30;;;;;;;8.27;6.68;;;;;;;;;;6187651;23;20100;-44
2021/12/18 12:40:03;;;;;;;7.38;6.28;;;;;;;;;;6190231;23;20015;-46
2021/12/18 12:42:29;;;;;;;8.00;7.03;;;;;;;;;;6185611;23;20036;-43
2021/12/18 12:45:08;;;;;;;7.07;6.38;;;;;;;;;;6184604;23;20020;-43
2021/12/18 12:47:34;;;;;;;8.63;7.03;;;;;;;;;;6188428;23;20079;-45
2021/12/18 12:50:03;;;;;;;8.75;7.43;;;;;;;;;;6189711;23;20441;-44
2021/12/18 12:52:29;;;;;;;8.88;7.53;;;;;;;;;;6184658;23;20353;-47
2021/12/18 12:54:57;;;;;;;7.97;7.00;;;;;;;;;;6184936;23;20485;-44
2021/12/18 12:57:23;;;;;;;8.20;7.10;;;;;;;;;;6186300;23;20013;-45
2021/12/18 12:59:49;;;;;;;8.82;6.88;;;;;;;;;;6190225;23;20083;-43
2021/12/18 13:02:14;;;;;;;9.32;7.93;;;;;;;;;;6188182;23;20389;-43
2021/12/18 13:04:40;;;;;;;9.70;7.38;;;;;;;;;;6185286;23;20005;-43
2021/12/18 13:07:06;;;;;;;9.57;7.85;;;;;;;;;;6183838;23;20031;-43
2021/12/18 13:09:32;;;;;;;8.90;6.70;;;;;;;;;;6188954;23;20016;-43
2021/12/18 13:12:01;;;;;;;7.95;7.15;;;;;;;;;;6189325;23;20092;-45
2021/12/18 13:14:34;;;;;;;8.35;7.38;;;;;;;;;;6185995;23;20032;-45
2021/12/18 13:16:59;;;;;;;8.88;6.63;;;;;;;;;;6184053;23;20009;-43
2021/12/18 13:19:25;;;;;;;8.23;6.85;;;;;;;;;;6187281;23;20071;-44
2021/12/18 13:21:50;;;;;;;7.63;6.90;;;;;;;;;;6189667;23;20016;-47
2021/12/18 13:24:15;;;;;;;7.65;6.53;;;;;;;;;;6188768;23;20031;-44
2021/12/18 13:26:45;;;;;;;6.70;5.68;;;;;;;;;;6182674;23;20009;-44
2021/12/18 13:29:10;;;;;;;;;;;;;;;;;;6182886;23;20017;-45
2021/12/18 13:31:43;;;;;;;9.70;7.28;;;;;;;;;;6186063;23;19958;-45
2021/12/18 13:34:10;;;;;;;7.72;6.93;;;;;;;;;;6188434;23;20563;-43
2021/12/18 13:36:38;;;;;;;8.00;6.22;;;;;;;;;;6182879;23;20627;-43
2021/12/18 13:39:11;;;;;;;9.25;7.65;;;;;;;;;;6183737;23;20016;-44
2021/12/18 13:41:36;;;;;;;7.18;6.38;;;;;;;;;;6184627;23;20005;-48
2021/12/18 13:44:02;;;;;;;8.20;7.18;;;;;;;;;;6183940;23;20009;-44
2021/12/18 13:46:29;;;;;;;7.78;6.60;;;;;;;;;;6187196;23;20628;-46
2021/12/18 13:48:54;;;;;;;7.38;6.68;;;;;;;;;;6189412;23;20456;-45
2021/12/18 13:51:20;;;;;;;7.82;6.93;;;;;;;;;;6186527;23;20028;-46
2021/12/18 13:53:53;;;;;;;8.68;6.85;;;;;;;;;;6188998;23;20016;-45
2021/12/18 13:56:19;;;;;;;9.68;8.00;;;;;;;;;;6188344;23;20020;-43
2021/12/18 13:58:46;;;;;;;7.78;7.03;;;;;;;;;;6193771;23;20000;-44
2021/12/18 14:01:12;;;;;;;8.43;7.22;;;;;;;;;;6192404;23;20079;-44
2021/12/18 14:03:57;;;;;;;8.45;7.40;;;;;;;;;;6185732;23;20013;-43
2021/12/18 14:06:41;;;;;;;8.88;7.47;;;;;;;;;;6187418;23;20028;-47
2021/12/18 14:09:14;;;;;;;7.57;6.75;;;;;;;;;;6190793;23;20769;-43
2021/12/18 14:11:43;;;;;;;6.70;6.00;;;;;;;;;;6190411;23;20021;-43
2021/12/18 14:14:12;;;;;;;6.53;5.93;;;;;;;;;;6191154;23;20008;-44
2021/12/18 14:16:38;;;;;;;;;;;;;;;;;;6190192;23;20230;-43
2021/12/18 14:19:05;;;;;;;7.50;6.50;;;;;;;;;;6190972;23;19904;-44
2021/12/18 14:21:49;;;;;;;7.55;6.50;;;;;;;;;;6185028;23;20476;-46
2021/12/18 14:24:15;;;;;;;6.97;6.25;;;;;;;;;;6186568;23;20020;-47
2021/12/18 14:26:41;;;;;;;7.30;5.53;;;;;;;;;;6191319;23;20067;-45
2021/12/18 14:29:16;;;;;;;8.35;6.47;;;;;;;;;;6193022;23;20341;-45
2021/12/18 14:31:49;;;;;;;6.50;5.90;;;;;;;;;;6193077;23;20162;-44
2021/12/18 14:34:21;;;;;;;7.72;6.57;;;;;;;;;;6192555;23;20008;-43
2021/12/18 14:36:48;;;;;;;7.28;6.10;;;;;;;;;;6189406;23;20016;-47
2021/12/18 14:39:17;;;;;;;8.30;6.68;;;;;;;;;;6187112;23;20009;-44
2021/12/18 14:41:54;;;;;;;7.93;6.20;;;;;;;;;;6193135;23;20019;-46
2021/12/18 14:44:19;;;;;;;9.57;6.93;;;;;;;;;;6188912;23;20015;-46
2021/12/18 14:46:44;;;;;;;6.75;6.05;;;;;;;;;;6188240;23;20013;-47
2021/12/18 14:49:10;;;;;;;6.68;5.97;;;;;;;;;;6188313;23;20036;-43
2021/12/18 14:51:37;;;;;;;7.38;6.13;;;;;;;;;;6187150;23;20460;-45
2021/12/18 14:54:04;;;;;;;6.47;5.80;;;;;;;;;;6188415;23;20006;-47
2021/12/18 14:56:29;;;;;;;7.57;6.57;;;;;;;;;;6198466;23;20009;-43
2021/12/18 14:58:54;;;;;;;8.38;6.75;;;;;;;;;;6188618;23;20012;-44
2021/12/18 15:01:20;;;;;;;6.80;6.07;;;;;;;;;;6189716;23;20012;-46
2021/12/18 15:03:45;;;;;;;8.82;6.20;;;;;;;;;;6193510;23;20012;-43
2021/12/18 15:06:21;;;;;;;8.57;6.78;;;;;;;;;;6192528;23;20096;-41
2021/12/18 15:08:48;;;;;;;6.00;5.32;;;;;;;;;;6188510;23;20013;-43
2021/12/18 15:11:18;;;;;;;6.30;5.65;;;;;;;;;;6188197;23;20079;-43
2021/12/18 15:14:06;;;;;;;6.70;6.00;;;;;;;;;;6193604;23;20535;-44
2021/12/18 15:16:33;;;;;;;7.53;6.07;;;;;;;;;;6176507;23;20012;-45
2021/12/18 15:19:04;;;;;;;7.53;5.80;;;;;;;;;;6193503;23;20032;-43